sensor_id;sensor_type;location;lat;lon;timestamp;P1;durP1;ratioP1;P2;durP2;ratioP2
6101;SDS011;3081;50.584;7.032;2023-02-23T00:00:30;43.00;;;21.33;;
6101;SDS011;3081;50.584;7.032;2023-02-23T00:03:00;40.27;;;20.40;;
6101;SDS011;3081;50.584;7.032;2023-02-23T00:05:29;39.87;;;19.67;;
6101;SDS011;3081;50.584;7.032;2023-02-23T00:08:00;38.90;;;18.87;;
6101;SDS011;3081;50.584;7.032;2023-02-23T00:10:29;39.57;;;19.73;;
6101;SDS011;3081;50.584;7.032;2023-02-23T00:12:57;39.37;;;21.17;;
6101;SDS011;3081;50.584;7.032;2023-02-23T00:15:25;35.57;;;19.80;;
6101;SDS011;3081;50.584;7.032;2023-02-23T00:17:53;49.33;;;23.65;;
6101;SDS011;3081;50.584;7.032;2023-02-23T00:20:23;48.10;;;20.80;;
6101;SDS011;3081;50.584;7.032;2023-02-23T00:22:52;38.63;;;20.17;;
6101;SDS011;3081;50.584;7.032;2023-02-23T00:25:20;36.77;;;20.77;;
6101;SDS011;3081;50.584;7.032;2023-02-23T00:27:48;80.33;;;38.20;;
6101;SDS011;3081;50.584;7.032;2023-02-23T00:30:17;49.10;;;24.93;;
6101;SDS011;3081;50.584;7.032;2023-02-23T00:32:45;51.70;;;23.70;;
6101;SDS011;3081;50.584;7.032;2023-02-23T00:35:13;43.17;;;23.40;;
6101;SDS011;3081;50.584;7.032;2023-02-23T00:37:45;48.43;;;23.60;;
6101;SDS011;3081;50.584;7.032;2023-02-23T00:40:13;48.30;;;25.00;;
6101;SDS011;3081;50.584;7.032;2023-02-23T00:42:42;54.63;;;28.30;;
6101;SDS011;3081;50.584;7.032;2023-02-23T00:45:10;51.40;;;24.93;;
6101;SDS011;3081;50.584;7.032;2023-02-23T00:47:38;56.13;;;26.33;;
6101;SDS011;3081;50.584;7.032;2023-02-23T00:50:08;54.03;;;25.90;;
6101;SDS011;3081;50.584;7.032;2023-02-23T00:52:39;50.17;;;25.67;;
6101;SDS011;3081;50.584;7.032;2023-02-23T00:55:09;56.10;;;26.70;;
6101;SDS011;3081;50.584;7.032;2023-02-23T00:57:38;49.20;;;25.80;;
6101;SDS011;3081;50.584;7.032;2023-02-23T01:00:05;49.47;;;27.00;;
6101;SDS011;3081;50.584;7.032;2023-02-23T01:02:44;52.33;;;27.00;;
6101;SDS011;3081;50.584;7.032;2023-02-23T01:05:11;69.70;;;34.47;;
6101;SDS011;3081;50.584;7.032;2023-02-23T01:07:40;54.03;;;29.00;;
6101;SDS011;3081;50.584;7.032;2023-02-23T01:10:11;75.87;;;33.93;;
6101;SDS011;3081;50.584;7.032;2023-02-23T01:12:47;56.50;;;30.50;;
6101;SDS011;3081;50.584;7.032;2023-02-23T01:15:16;60.77;;;31.47;;
6101;SDS011;3081;50.584;7.032;2023-02-23T01:17:44;56.50;;;29.63;;
6101;SDS011;3081;50.584;7.032;2023-02-23T01:20:12;102.55;;;49.13;;
6101;SDS011;3081;50.584;7.032;2023-02-23T01:22:42;70.33;;;35.07;;
6101;SDS011;3081;50.584;7.032;2023-02-23T01:25:09;62.37;;;29.53;;
6101;SDS011;3081;50.584;7.032;2023-02-23T01:27:38;80.50;;;35.30;;
6101;SDS011;3081;50.584;7.032;2023-02-23T01:30:06;73.40;;;38.13;;
6101;SDS011;3081;50.584;7.032;2023-02-23T01:32:34;55.90;;;28.00;;
6101;SDS011;3081;50.584;7.032;2023-02-23T01:35:02;69.63;;;34.93;;
6101;SDS011;3081;50.584;7.032;2023-02-23T01:37:32;54.37;;;25.60;;
6101;SDS011;3081;50.584;7.032;2023-02-23T01:40:00;60.63;;;29.00;;
6101;SDS011;3081;50.584;7.032;2023-02-23T01:42:36;62.70;;;30.83;;
6101;SDS011;3081;50.584;7.032;2023-02-23T01:45:16;50.20;;;25.00;;
6101;SDS011;3081;50.584;7.032;2023-02-23T01:47:51;53.80;;;27.20;;
6101;SDS011;3081;50.584;7.032;2023-02-23T01:50:21;60.85;;;28.90;;
6101;SDS011;3081;50.584;7.032;2023-02-23T01:52:51;51.07;;;27.50;;
6101;SDS011;3081;50.584;7.032;2023-02-23T01:55:20;77.60;;;38.70;;
6101;SDS011;3081;50.584;7.032;2023-02-23T01:57:52;57.67;;;27.47;;
6101;SDS011;3081;50.584;7.032;2023-02-23T02:00:23;56.80;;;27.90;;
6101;SDS011;3081;50.584;7.032;2023-02-23T02:02:52;58.13;;;26.73;;
6101;SDS011;3081;50.584;7.032;2023-02-23T02:05:19;56.33;;;25.67;;
6101;SDS011;3081;50.584;7.032;2023-02-23T02:07:48;59.50;;;25.50;;
6101;SDS011;3081;50.584;7.032;2023-02-23T02:10:23;49.90;;;27.13;;
6101;SDS011;3081;50.584;7.032;2023-02-23T02:13:13;47.67;;;24.70;;
6101;SDS011;3081;50.584;7.032;2023-02-23T02:15:52;53.97;;;25.20;;
6101;SDS011;3081;50.584;7.032;2023-02-23T02:18:32;49.13;;;25.13;;
6101;SDS011;3081;50.584;7.032;2023-02-23T02:24:27;52.20;;;24.70;;
6101;SDS011;3081;50.584;7.032;2023-02-23T02:27:21;50.90;;;26.00;;
6101;SDS011;3081;50.584;7.032;2023-02-23T02:33:06;53.37;;;26.27;;
6101;SDS011;3081;50.584;7.032;2023-02-23T02:39:18;61.80;;;32.08;;
6101;SDS011;3081;50.584;7.032;2023-02-23T02:42:01;57.83;;;28.40;;
6101;SDS011;3081;50.584;7.032;2023-02-23T02:44:39;48.80;;;24.60;;
6101;SDS011;3081;50.584;7.032;2023-02-23T02:47:11;47.87;;;22.87;;
6101;SDS011;3081;50.584;7.032;2023-02-23T02:49:46;39.93;;;21.57;;
6101;SDS011;3081;50.584;7.032;2023-02-23T02:52:18;47.87;;;23.77;;
6101;SDS011;3081;50.584;7.032;2023-02-23T02:54:51;61.33;;;29.53;;
6101;SDS011;3081;50.584;7.032;2023-02-23T02:57:23;48.03;;;23.83;;
6101;SDS011;3081;50.584;7.032;2023-02-23T02:59:52;47.27;;;22.50;;
6101;SDS011;3081;50.584;7.032;2023-02-23T03:02:37;48.80;;;23.30;;
6101;SDS011;3081;50.584;7.032;2023-02-23T03:05:24;42.83;;;22.67;;
6101;SDS011;3081;50.584;7.032;2023-02-23T03:08:14;46.77;;;22.47;;
6101;SDS011;3081;50.584;7.032;2023-02-23T03:11:06;48.23;;;21.90;;
6101;SDS011;3081;50.584;7.032;2023-02-23T03:13:57;46.80;;;22.80;;
6101;SDS011;3081;50.584;7.032;2023-02-23T03:16:55;40.37;;;22.37;;
6101;SDS011;3081;50.584;7.032;2023-02-23T03:19:47;44.57;;;20.07;;
6101;SDS011;3081;50.584;7.032;2023-02-23T03:22:38;44.83;;;21.17;;
6101;SDS011;3081;50.584;7.032;2023-02-23T03:25:31;38.57;;;19.60;;
6101;SDS011;3081;50.584;7.032;2023-02-23T03:28:29;36.50;;;18.40;;
6101;SDS011;3081;50.584;7.032;2023-02-23T03:31:17;42.90;;;20.43;;
6101;SDS011;3081;50.584;7.032;2023-02-23T03:34:11;40.13;;;19.63;;
6101;SDS011;3081;50.584;7.032;2023-02-23T03:37:01;39.83;;;18.83;;
6101;SDS011;3081;50.584;7.032;2023-02-23T03:39:50;40.93;;;20.90;;
6101;SDS011;3081;50.584;7.032;2023-02-23T03:42:41;37.87;;;20.40;;
6101;SDS011;3081;50.584;7.032;2023-02-23T03:45:28;44.83;;;22.10;;
6101;SDS011;3081;50.584;7.032;2023-02-23T03:48:14;45.40;;;22.60;;
6101;SDS011;3081;50.584;7.032;2023-02-23T03:51:03;41.97;;;22.60;;
6101;SDS011;3081;50.584;7.032;2023-02-23T03:53:52;41.43;;;21.50;;
6101;SDS011;3081;50.584;7.032;2023-02-23T03:56:43;40.50;;;21.40;;
6101;SDS011;3081;50.584;7.032;2023-02-23T03:59:31;41.00;;;22.47;;
6101;SDS011;3081;50.584;7.032;2023-02-23T04:02:22;40.73;;;19.00;;
6101;SDS011;3081;50.584;7.032;2023-02-23T04:05:08;41.33;;;20.80;;
6101;SDS011;3081;50.584;7.032;2023-02-23T04:07:56;37.27;;;19.47;;
6101;SDS011;3081;50.584;7.032;2023-02-23T04:10:45;33.60;;;18.67;;
6101;SDS011;3081;50.584;7.032;2023-02-23T04:13:37;35.33;;;19.50;;
6101;SDS011;3081;50.584;7.032;2023-02-23T04:16:05;36.30;;;20.27;;
6101;SDS011;3081;50.584;7.032;2023-02-23T04:18:35;32.47;;;17.87;;
6101;SDS011;3081;50.584;7.032;2023-02-23T04:21:04;33.47;;;17.90;;
6101;SDS011;3081;50.584;7.032;2023-02-23T04:23:32;37.67;;;19.13;;
6101;SDS011;3081;50.584;7.032;2023-02-23T04:26:00;35.37;;;19.57;;
6101;SDS011;3081;50.584;7.032;2023-02-23T04:28:27;46.00;;;22.98;;
6101;SDS011;3081;50.584;7.032;2023-02-23T04:30:54;40.30;;;19.67;;
6101;SDS011;3081;50.584;7.032;2023-02-23T04:33:21;33.90;;;17.27;;
6101;SDS011;3081;50.584;7.032;2023-02-23T04:35:52;40.27;;;20.37;;
6101;SDS011;3081;50.584;7.032;2023-02-23T04:38:19;44.03;;;24.50;;
6101;SDS011;3081;50.584;7.032;2023-02-23T04:40:46;45.07;;;25.13;;
6101;SDS011;3081;50.584;7.032;2023-02-23T04:43:14;58.03;;;31.92;;
6101;SDS011;3081;50.584;7.032;2023-02-23T04:45:41;42.20;;;23.37;;
6101;SDS011;3081;50.584;7.032;2023-02-23T04:48:08;66.90;;;33.47;;
6101;SDS011;3081;50.584;7.032;2023-02-23T04:50:35;45.90;;;27.20;;
6101;SDS011;3081;50.584;7.032;2023-02-23T04:53:05;45.40;;;24.07;;
6101;SDS011;3081;50.584;7.032;2023-02-23T04:55:32;68.17;;;35.43;;
6101;SDS011;3081;50.584;7.032;2023-02-23T04:57:59;60.40;;;33.10;;
6101;SDS011;3081;50.584;7.032;2023-02-23T05:00:27;69.73;;;37.00;;
6101;SDS011;3081;50.584;7.032;2023-02-23T05:02:54;67.90;;;34.63;;
6101;SDS011;3081;50.584;7.032;2023-02-23T05:05:21;64.70;;;34.33;;
6101;SDS011;3081;50.584;7.032;2023-02-23T05:07:48;56.73;;;32.00;;
6101;SDS011;3081;50.584;7.032;2023-02-23T05:10:17;69.00;;;38.17;;
6101;SDS011;3081;50.584;7.032;2023-02-23T05:12:43;61.57;;;32.53;;
6101;SDS011;3081;50.584;7.032;2023-02-23T05:15:11;74.05;;;40.83;;
6101;SDS011;3081;50.584;7.032;2023-02-23T05:17:38;62.90;;;38.23;;
6101;SDS011;3081;50.584;7.032;2023-02-23T05:20:06;62.50;;;33.97;;
6101;SDS011;3081;50.584;7.032;2023-02-23T05:22:34;67.90;;;40.57;;
6101;SDS011;3081;50.584;7.032;2023-02-23T05:25:01;72.40;;;40.07;;
6101;SDS011;3081;50.584;7.032;2023-02-23T05:27:30;64.77;;;36.40;;
6101;SDS011;3081;50.584;7.032;2023-02-23T05:29:58;69.22;;;38.10;;
6101;SDS011;3081;50.584;7.032;2023-02-23T05:32:26;69.43;;;39.70;;
6101;SDS011;3081;50.584;7.032;2023-02-23T05:34:53;65.50;;;34.97;;
6101;SDS011;3081;50.584;7.032;2023-02-23T05:37:20;74.07;;;41.23;;
6101;SDS011;3081;50.584;7.032;2023-02-23T05:39:47;70.93;;;39.03;;
6101;SDS011;3081;50.584;7.032;2023-02-23T05:42:14;67.93;;;36.30;;
6101;SDS011;3081;50.584;7.032;2023-02-23T05:44:42;72.37;;;37.63;;
6101;SDS011;3081;50.584;7.032;2023-02-23T05:47:09;64.63;;;36.50;;
6101;SDS011;3081;50.584;7.032;2023-02-23T05:49:36;74.93;;;39.57;;
6101;SDS011;3081;50.584;7.032;2023-02-23T05:52:03;74.90;;;40.37;;
6101;SDS011;3081;50.584;7.032;2023-02-23T05:54:30;64.80;;;34.07;;
6101;SDS011;3081;50.584;7.032;2023-02-23T05:56:57;88.17;;;44.57;;
6101;SDS011;3081;50.584;7.032;2023-02-23T05:59:24;83.90;;;43.03;;
6101;SDS011;3081;50.584;7.032;2023-02-23T06:01:53;82.27;;;43.60;;
6101;SDS011;3081;50.584;7.032;2023-02-23T06:04:20;83.23;;;45.40;;
6101;SDS011;3081;50.584;7.032;2023-02-23T06:06:48;80.83;;;42.97;;
6101;SDS011;3081;50.584;7.032;2023-02-23T06:09:15;75.03;;;39.70;;
6101;SDS011;3081;50.584;7.032;2023-02-23T06:11:42;70.63;;;38.10;;
6101;SDS011;3081;50.584;7.032;2023-02-23T06:14:08;86.13;;;45.27;;
6101;SDS011;3081;50.584;7.032;2023-02-23T06:16:35;87.53;;;46.20;;
6101;SDS011;3081;50.584;7.032;2023-02-23T06:19:04;102.10;;;54.50;;
6101;SDS011;3081;50.584;7.032;2023-02-23T06:21:31;100.50;;;50.47;;
6101;SDS011;3081;50.584;7.032;2023-02-23T06:23:58;90.67;;;45.87;;
6101;SDS011;3081;50.584;7.032;2023-02-23T06:26:26;106.03;;;55.63;;
6101;SDS011;3081;50.584;7.032;2023-02-23T06:28:54;110.20;;;52.40;;
6101;SDS011;3081;50.584;7.032;2023-02-23T06:31:21;94.63;;;46.87;;
6101;SDS011;3081;50.584;7.032;2023-02-23T06:33:49;113.00;;;54.00;;
6101;SDS011;3081;50.584;7.032;2023-02-23T06:36:17;98.70;;;46.30;;
6101;SDS011;3081;50.584;7.032;2023-02-23T06:38:44;79.77;;;38.17;;
6101;SDS011;3081;50.584;7.032;2023-02-23T06:41:11;94.33;;;44.70;;
6101;SDS011;3081;50.584;7.032;2023-02-23T06:43:38;103.40;;;48.60;;
6101;SDS011;3081;50.584;7.032;2023-02-23T06:46:05;78.77;;;38.03;;
6101;SDS011;3081;50.584;7.032;2023-02-23T06:48:32;99.23;;;47.60;;
6101;SDS011;3081;50.584;7.032;2023-02-23T06:50:59;92.50;;;45.90;;
6101;SDS011;3081;50.584;7.032;2023-02-23T06:53:27;110.00;;;49.10;;
6101;SDS011;3081;50.584;7.032;2023-02-23T06:55:55;103.23;;;48.13;;
6101;SDS011;3081;50.584;7.032;2023-02-23T06:58:22;93.70;;;44.30;;
6101;SDS011;3081;50.584;7.032;2023-02-23T07:00:49;90.97;;;43.97;;
6101;SDS011;3081;50.584;7.032;2023-02-23T07:03:16;102.03;;;42.80;;
6101;SDS011;3081;50.584;7.032;2023-02-23T07:05:44;102.77;;;42.53;;
6101;SDS011;3081;50.584;7.032;2023-02-23T07:08:11;83.47;;;41.67;;
6101;SDS011;3081;50.584;7.032;2023-02-23T07:10:39;84.03;;;40.57;;
6101;SDS011;3081;50.584;7.032;2023-02-23T07:13:06;70.67;;;36.77;;
6101;SDS011;3081;50.584;7.032;2023-02-23T07:15:33;76.47;;;36.43;;
6101;SDS011;3081;50.584;7.032;2023-02-23T07:18:01;67.73;;;33.37;;
6101;SDS011;3081;50.584;7.032;2023-02-23T07:20:27;67.10;;;34.60;;
6101;SDS011;3081;50.584;7.032;2023-02-23T07:22:55;77.87;;;39.60;;
6101;SDS011;3081;50.584;7.032;2023-02-23T07:25:22;75.77;;;36.57;;
6101;SDS011;3081;50.584;7.032;2023-02-23T07:27:50;81.73;;;37.80;;
6101;SDS011;3081;50.584;7.032;2023-02-23T07:30:18;78.30;;;39.67;;
6101;SDS011;3081;50.584;7.032;2023-02-23T07:32:48;83.23;;;37.93;;
6101;SDS011;3081;50.584;7.032;2023-02-23T07:35:15;83.17;;;38.17;;
6101;SDS011;3081;50.584;7.032;2023-02-23T07:37:42;72.37;;;36.30;;
6101;SDS011;3081;50.584;7.032;2023-02-23T07:40:10;72.20;;;37.80;;
6101;SDS011;3081;50.584;7.032;2023-02-23T07:42:37;75.33;;;37.67;;
6101;SDS011;3081;50.584;7.032;2023-02-23T07:45:06;83.17;;;39.07;;
6101;SDS011;3081;50.584;7.032;2023-02-23T07:47:34;82.47;;;38.53;;
6101;SDS011;3081;50.584;7.032;2023-02-23T07:50:02;75.30;;;38.17;;
6101;SDS011;3081;50.584;7.032;2023-02-23T07:52:32;79.03;;;38.40;;
6101;SDS011;3081;50.584;7.032;2023-02-23T07:54:58;76.07;;;35.23;;
6101;SDS011;3081;50.584;7.032;2023-02-23T07:57:25;66.83;;;34.73;;
6101;SDS011;3081;50.584;7.032;2023-02-23T07:59:53;67.93;;;36.30;;
6101;SDS011;3081;50.584;7.032;2023-02-23T08:02:21;69.07;;;36.10;;
6101;SDS011;3081;50.584;7.032;2023-02-23T08:04:48;68.13;;;33.70;;
6101;SDS011;3081;50.584;7.032;2023-02-23T08:07:18;69.57;;;34.97;;
6101;SDS011;3081;50.584;7.032;2023-02-23T08:09:45;66.17;;;35.33;;
6101;SDS011;3081;50.584;7.032;2023-02-23T08:12:13;64.70;;;33.70;;
6101;SDS011;3081;50.584;7.032;2023-02-23T08:14:40;67.40;;;36.00;;
6101;SDS011;3081;50.584;7.032;2023-02-23T08:17:07;72.27;;;36.43;;
6101;SDS011;3081;50.584;7.032;2023-02-23T08:19:36;70.93;;;37.13;;
6101;SDS011;3081;50.584;7.032;2023-02-23T08:22:04;69.70;;;37.40;;
6101;SDS011;3081;50.584;7.032;2023-02-23T08:24:31;73.67;;;35.77;;
6101;SDS011;3081;50.584;7.032;2023-02-23T08:26:59;65.37;;;35.93;;
6101;SDS011;3081;50.584;7.032;2023-02-23T08:29:27;68.43;;;35.30;;
6101;SDS011;3081;50.584;7.032;2023-02-23T08:31:54;62.63;;;35.47;;
6101;SDS011;3081;50.584;7.032;2023-02-23T08:34:21;75.33;;;37.10;;
6101;SDS011;3081;50.584;7.032;2023-02-23T08:36:50;75.77;;;39.77;;
6101;SDS011;3081;50.584;7.032;2023-02-23T08:39:17;76.73;;;37.87;;
6101;SDS011;3081;50.584;7.032;2023-02-23T08:41:45;74.73;;;34.50;;
6101;SDS011;3081;50.584;7.032;2023-02-23T08:44:12;74.83;;;35.47;;
6101;SDS011;3081;50.584;7.032;2023-02-23T08:46:38;70.13;;;36.97;;
6101;SDS011;3081;50.584;7.032;2023-02-23T08:49:05;66.13;;;34.97;;
6101;SDS011;3081;50.584;7.032;2023-02-23T08:51:36;70.10;;;34.57;;
6101;SDS011;3081;50.584;7.032;2023-02-23T08:54:07;80.40;;;38.35;;
6101;SDS011;3081;50.584;7.032;2023-02-23T08:56:38;73.80;;;35.43;;
6101;SDS011;3081;50.584;7.032;2023-02-23T08:59:05;74.03;;;37.23;;
6101;SDS011;3081;50.584;7.032;2023-02-23T09:01:33;69.97;;;34.77;;
6101;SDS011;3081;50.584;7.032;2023-02-23T09:04:01;67.67;;;36.07;;
6101;SDS011;3081;50.584;7.032;2023-02-23T09:06:28;62.37;;;33.10;;
6101;SDS011;3081;50.584;7.032;2023-02-23T09:08:55;70.33;;;35.70;;
6101;SDS011;3081;50.584;7.032;2023-02-23T09:11:23;72.50;;;38.22;;
6101;SDS011;3081;50.584;7.032;2023-02-23T09:13:51;78.17;;;35.30;;
6101;SDS011;3081;50.584;7.032;2023-02-23T09:16:18;66.10;;;34.00;;
6101;SDS011;3081;50.584;7.032;2023-02-23T09:18:45;66.30;;;34.47;;
6101;SDS011;3081;50.584;7.032;2023-02-23T09:21:13;58.20;;;31.33;;
6101;SDS011;3081;50.584;7.032;2023-02-23T09:23:45;66.40;;;34.00;;
6101;SDS011;3081;50.584;7.032;2023-02-23T09:26:13;60.78;;;33.28;;
6101;SDS011;3081;50.584;7.032;2023-02-23T09:28:43;62.43;;;31.03;;
6101;SDS011;3081;50.584;7.032;2023-02-23T09:31:11;62.83;;;32.83;;
6101;SDS011;3081;50.584;7.032;2023-02-23T09:33:39;60.63;;;31.43;;
6101;SDS011;3081;50.584;7.032;2023-02-23T09:36:08;54.90;;;28.30;;
6101;SDS011;3081;50.584;7.032;2023-02-23T09:38:40;55.30;;;30.50;;
6101;SDS011;3081;50.584;7.032;2023-02-23T09:41:15;53.03;;;29.20;;
6101;SDS011;3081;50.584;7.032;2023-02-23T09:44:14;64.32;;;35.85;;
6101;SDS011;3081;50.584;7.032;2023-02-23T09:46:53;48.23;;;28.20;;
6101;SDS011;3081;50.584;7.032;2023-02-23T09:49:31;45.47;;;24.70;;
6101;SDS011;3081;50.584;7.032;2023-02-23T09:52:02;42.47;;;22.80;;
6101;SDS011;3081;50.584;7.032;2023-02-23T09:54:31;46.03;;;22.63;;
6101;SDS011;3081;50.584;7.032;2023-02-23T09:57:01;44.10;;;24.17;;
6101;SDS011;3081;50.584;7.032;2023-02-23T09:59:31;48.45;;;29.15;;
6101;SDS011;3081;50.584;7.032;2023-02-23T10:02:01;47.50;;;25.23;;
6101;SDS011;3081;50.584;7.032;2023-02-23T10:04:34;41.50;;;22.70;;
6101;SDS011;3081;50.584;7.032;2023-02-23T10:07:05;36.67;;;20.20;;
6101;SDS011;3081;50.584;7.032;2023-02-23T10:09:48;31.20;;;18.60;;
6101;SDS011;3081;50.584;7.032;2023-02-23T10:12:25;28.13;;;16.30;;
6101;SDS011;3081;50.584;7.032;2023-02-23T10:15:05;43.00;;;26.10;;
6101;SDS011;3081;50.584;7.032;2023-02-23T10:17:43;37.40;;;20.13;;
6101;SDS011;3081;50.584;7.032;2023-02-23T10:20:21;35.17;;;19.07;;
6101;SDS011;3081;50.584;7.032;2023-02-23T10:22:55;28.63;;;16.63;;
6101;SDS011;3081;50.584;7.032;2023-02-23T10:25:29;34.67;;;17.17;;
6101;SDS011;3081;50.584;7.032;2023-02-23T10:27:59;31.27;;;16.50;;
6101;SDS011;3081;50.584;7.032;2023-02-23T10:30:29;31.73;;;17.17;;
6101;SDS011;3081;50.584;7.032;2023-02-23T10:32:58;31.80;;;16.90;;
6101;SDS011;3081;50.584;7.032;2023-02-23T10:35:29;25.83;;;15.23;;
6101;SDS011;3081;50.584;7.032;2023-02-23T10:37:58;25.50;;;15.47;;
6101;SDS011;3081;50.584;7.032;2023-02-23T10:40:27;31.83;;;19.17;;
6101;SDS011;3081;50.584;7.032;2023-02-23T10:42:57;26.90;;;15.90;;
6101;SDS011;3081;50.584;7.032;2023-02-23T10:45:26;24.48;;;14.85;;
6101;SDS011;3081;50.584;7.032;2023-02-23T10:47:59;27.00;;;13.80;;
6101;SDS011;3081;50.584;7.032;2023-02-23T10:50:30;21.57;;;12.50;;
6101;SDS011;3081;50.584;7.032;2023-02-23T10:52:59;27.20;;;14.50;;
6101;SDS011;3081;50.584;7.032;2023-02-23T10:55:30;22.07;;;11.73;;
6101;SDS011;3081;50.584;7.032;2023-02-23T10:58:02;23.00;;;12.50;;
6101;SDS011;3081;50.584;7.032;2023-02-23T11:00:35;25.23;;;13.27;;
6101;SDS011;3081;50.584;7.032;2023-02-23T11:03:15;33.90;;;19.80;;
6101;SDS011;3081;50.584;7.032;2023-02-23T11:05:44;31.43;;;18.93;;
6101;SDS011;3081;50.584;7.032;2023-02-23T11:08:18;33.43;;;19.90;;
6101;SDS011;3081;50.584;7.032;2023-02-23T11:10:54;37.47;;;20.40;;
6101;SDS011;3081;50.584;7.032;2023-02-23T11:13:34;43.00;;;19.53;;
6101;SDS011;3081;50.584;7.032;2023-02-23T11:16:06;40.65;;;20.80;;
6101;SDS011;3081;50.584;7.032;2023-02-23T11:18:37;34.43;;;20.40;;
6101;SDS011;3081;50.584;7.032;2023-02-23T11:21:09;37.97;;;20.47;;
6101;SDS011;3081;50.584;7.032;2023-02-23T11:23:38;39.87;;;21.40;;
6101;SDS011;3081;50.584;7.032;2023-02-23T11:26:17;38.97;;;21.10;;
6101;SDS011;3081;50.584;7.032;2023-02-23T11:28:50;31.90;;;17.27;;
6101;SDS011;3081;50.584;7.032;2023-02-23T11:31:21;41.72;;;21.67;;
6101;SDS011;3081;50.584;7.032;2023-02-23T11:33:56;32.83;;;17.73;;
6101;SDS011;3081;50.584;7.032;2023-02-23T11:36:28;37.50;;;21.53;;
6101;SDS011;3081;50.584;7.032;2023-02-23T11:39:01;39.60;;;23.90;;
6101;SDS011;3081;50.584;7.032;2023-02-23T11:41:31;32.60;;;18.30;;
6101;SDS011;3081;50.584;7.032;2023-02-23T11:43:59;35.47;;;17.97;;
6101;SDS011;3081;50.584;7.032;2023-02-23T11:46:30;31.77;;;20.00;;
6101;SDS011;3081;50.584;7.032;2023-02-23T11:49:03;35.20;;;20.40;;
6101;SDS011;3081;50.584;7.032;2023-02-23T11:51:33;39.53;;;18.20;;
6101;SDS011;3081;50.584;7.032;2023-02-23T11:54:02;40.17;;;20.33;;
6101;SDS011;3081;50.584;7.032;2023-02-23T11:56:31;37.50;;;19.00;;
6101;SDS011;3081;50.584;7.032;2023-02-23T11:59:00;41.45;;;23.65;;
6101;SDS011;3081;50.584;7.032;2023-02-23T12:01:36;37.23;;;20.47;;
6101;SDS011;3081;50.584;7.032;2023-02-23T12:04:08;44.10;;;20.23;;
6101;SDS011;3081;50.584;7.032;2023-02-23T12:06:49;41.10;;;18.90;;
6101;SDS011;3081;50.584;7.032;2023-02-23T12:09:18;39.23;;;17.90;;
6101;SDS011;3081;50.584;7.032;2023-02-23T12:11:51;30.90;;;17.60;;
6101;SDS011;3081;50.584;7.032;2023-02-23T12:14:25;30.70;;;13.77;;
6101;SDS011;3081;50.584;7.032;2023-02-23T12:16:59;33.87;;;16.83;;
6101;SDS011;3081;50.584;7.032;2023-02-23T12:19:32;36.23;;;19.07;;
6101;SDS011;3081;50.584;7.032;2023-02-23T12:22:04;30.10;;;17.80;;
6101;SDS011;3081;50.584;7.032;2023-02-23T12:24:37;38.33;;;18.30;;
6101;SDS011;3081;50.584;7.032;2023-02-23T12:27:10;36.67;;;18.33;;
6101;SDS011;3081;50.584;7.032;2023-02-23T12:29:43;28.97;;;16.33;;
6101;SDS011;3081;50.584;7.032;2023-02-23T12:32:22;31.63;;;17.10;;
6101;SDS011;3081;50.584;7.032;2023-02-23T12:34:54;24.07;;;12.53;;
6101;SDS011;3081;50.584;7.032;2023-02-23T12:37:28;30.90;;;15.37;;
6101;SDS011;3081;50.584;7.032;2023-02-23T12:40:04;32.23;;;17.00;;
6101;SDS011;3081;50.584;7.032;2023-02-23T12:42:39;40.30;;;17.87;;
6101;SDS011;3081;50.584;7.032;2023-02-23T12:45:13;28.97;;;16.17;;
6101;SDS011;3081;50.584;7.032;2023-02-23T12:47:51;34.03;;;17.53;;
6101;SDS011;3081;50.584;7.032;2023-02-23T12:50:24;32.83;;;16.37;;
6101;SDS011;3081;50.584;7.032;2023-02-23T12:52:55;31.13;;;15.97;;
6101;SDS011;3081;50.584;7.032;2023-02-23T12:55:28;33.50;;;15.33;;
6101;SDS011;3081;50.584;7.032;2023-02-23T12:58:04;38.77;;;16.73;;
6101;SDS011;3081;50.584;7.032;2023-02-23T13:00:44;29.37;;;15.47;;
6101;SDS011;3081;50.584;7.032;2023-02-23T13:03:44;24.80;;;12.70;;
6101;SDS011;3081;50.584;7.032;2023-02-23T13:06:22;29.27;;;15.43;;
6101;SDS011;3081;50.584;7.032;2023-02-23T13:09:07;24.50;;;13.20;;
6101;SDS011;3081;50.584;7.032;2023-02-23T13:11:53;36.10;;;16.53;;
6101;SDS011;3081;50.584;7.032;2023-02-23T13:14:33;24.97;;;13.70;;
6101;SDS011;3081;50.584;7.032;2023-02-23T13:17:09;23.53;;;12.80;;
6101;SDS011;3081;50.584;7.032;2023-02-23T13:19:50;22.50;;;11.80;;
6101;SDS011;3081;50.584;7.032;2023-02-23T13:22:25;25.93;;;13.90;;
6101;SDS011;3081;50.584;7.032;2023-02-23T13:24:57;27.80;;;13.60;;
6101;SDS011;3081;50.584;7.032;2023-02-23T13:27:28;23.93;;;11.63;;
6101;SDS011;3081;50.584;7.032;2023-02-23T13:30:00;26.47;;;12.90;;
6101;SDS011;3081;50.584;7.032;2023-02-23T13:32:30;19.60;;;9.83;;
6101;SDS011;3081;50.584;7.032;2023-02-23T13:35:02;21.90;;;11.50;;
6101;SDS011;3081;50.584;7.032;2023-02-23T13:37:34;27.77;;;14.95;;
6101;SDS011;3081;50.584;7.032;2023-02-23T13:40:13;26.77;;;14.43;;
6101;SDS011;3081;50.584;7.032;2023-02-23T13:42:51;30.43;;;14.43;;
6101;SDS011;3081;50.584;7.032;2023-02-23T13:45:35;24.20;;;14.33;;
6101;SDS011;3081;50.584;7.032;2023-02-23T13:48:15;26.40;;;14.90;;
6101;SDS011;3081;50.584;7.032;2023-02-23T13:50:53;25.07;;;14.20;;
6101;SDS011;3081;50.584;7.032;2023-02-23T13:53:27;29.27;;;14.90;;
6101;SDS011;3081;50.584;7.032;2023-02-23T13:56:08;25.90;;;13.90;;
6101;SDS011;3081;50.584;7.032;2023-02-23T13:58:36;26.05;;;14.68;;
6101;SDS011;3081;50.584;7.032;2023-02-23T14:01:12;25.97;;;13.60;;
6101;SDS011;3081;50.584;7.032;2023-02-23T14:03:46;31.00;;;17.17;;
6101;SDS011;3081;50.584;7.032;2023-02-23T14:06:21;34.50;;;16.17;;
6101;SDS011;3081;50.584;7.032;2023-02-23T14:08:50;26.63;;;14.60;;
6101;SDS011;3081;50.584;7.032;2023-02-23T14:11:27;27.03;;;13.50;;
6101;SDS011;3081;50.584;7.032;2023-02-23T14:14:08;25.40;;;13.63;;
6101;SDS011;3081;50.584;7.032;2023-02-23T14:16:38;24.90;;;12.30;;
6101;SDS011;3081;50.584;7.032;2023-02-23T14:19:06;26.27;;;12.55;;
6101;SDS011;3081;50.584;7.032;2023-02-23T14:21:42;26.73;;;13.30;;
6101;SDS011;3081;50.584;7.032;2023-02-23T14:24:15;23.17;;;11.30;;
6101;SDS011;3081;50.584;7.032;2023-02-23T14:26:46;27.90;;;12.23;;
6101;SDS011;3081;50.584;7.032;2023-02-23T14:29:41;36.00;;;13.70;;
6101;SDS011;3081;50.584;7.032;2023-02-23T14:35:03;35.73;;;15.60;;
6101;SDS011;3081;50.584;7.032;2023-02-23T14:37:33;40.03;;;15.87;;
6101;SDS011;3081;50.584;7.032;2023-02-23T14:40:04;45.95;;;19.58;;
6101;SDS011;3081;50.584;7.032;2023-02-23T14:42:38;44.17;;;18.00;;
6101;SDS011;3081;50.584;7.032;2023-02-23T14:45:11;37.40;;;15.40;;
6101;SDS011;3081;50.584;7.032;2023-02-23T14:47:45;53.23;;;17.73;;
6101;SDS011;3081;50.584;7.032;2023-02-23T14:50:17;47.50;;;20.03;;
6101;SDS011;3081;50.584;7.032;2023-02-23T14:52:51;37.90;;;16.30;;
6101;SDS011;3081;50.584;7.032;2023-02-23T14:55:21;45.23;;;16.80;;
6101;SDS011;3081;50.584;7.032;2023-02-23T14:57:50;43.17;;;15.17;;
6101;SDS011;3081;50.584;7.032;2023-02-23T15:00:20;54.23;;;19.03;;
6101;SDS011;3081;50.584;7.032;2023-02-23T15:02:53;44.60;;;19.37;;
6101;SDS011;3081;50.584;7.032;2023-02-23T15:05:23;45.23;;;17.27;;
6101;SDS011;3081;50.584;7.032;2023-02-23T15:07:53;58.53;;;21.47;;
6101;SDS011;3081;50.584;7.032;2023-02-23T15:10:25;55.50;;;19.50;;
6101;SDS011;3081;50.584;7.032;2023-02-23T15:12:56;46.77;;;19.60;;
6101;SDS011;3081;50.584;7.032;2023-02-23T15:15:25;51.63;;;17.07;;
6101;SDS011;3081;50.584;7.032;2023-02-23T15:17:55;55.83;;;20.75;;
6101;SDS011;3081;50.584;7.032;2023-02-23T15:20:26;54.63;;;20.90;;
6101;SDS011;3081;50.584;7.032;2023-02-23T15:22:59;44.30;;;17.50;;
6101;SDS011;3081;50.584;7.032;2023-02-23T15:25:32;57.27;;;17.90;;
6101;SDS011;3081;50.584;7.032;2023-02-23T15:30:54;48.50;;;17.67;;
6101;SDS011;3081;50.584;7.032;2023-02-23T15:33:24;50.87;;;16.97;;